Time;durP1;ratioP1;P1;durP2;ratioP2;P2;SDS_P1;SDS_P2;PMS_P1;PMS_P2;Temp;Humidity;BMP_temperature;BMP_pressure;BME280_temperature;BME280_humidity;BME280_pressure;Samples;Min_cycle;Max_cycle;Signal;HPM_P1;HPM_P2
2022/06/06 00:01:43;;;;;;;5.70;2.70;;;;;;;12.41;67.87;99762.16;5034247;28;20037;-58
2022/06/06 00:04:10;;;;;;;4.50;2.63;;;;;;;12.34;68.28;99751.09;5034172;28;20044;-55
2022/06/06 00:06:36;;;;;;;5.38;2.65;;;;;;;12.35;68.22;99752.81;5034323;28;20103;-59
2022/06/06 00:09:03;;;;;;;4.20;2.88;;;;;;;12.35;68.08;99762.72;5034132;28;20040;-53
2022/06/06 00:11:32;;;;;;;5.10;3.38;;;;;;;12.36;68.15;99748.28;5034352;28;20080;-55
2022/06/06 00:13:58;;;;;;;3.13;2.78;;;;;;;12.30;68.37;99748.84;5033778;28;20134;-54
2022/06/06 00:16:23;;;;;;;6.15;2.92;;;;;;;12.31;68.54;99753.22;5033581;28;20467;-56
2022/06/06 00:18:49;;;;;;;7.38;2.83;;;;;;;12.27;68.38;99747.28;5033536;28;20045;-56
2022/06/06 00:21:14;;;;;;;7.60;3.20;;;;;;;12.29;68.49;99744.44;5033736;28;20832;-58
2022/06/06 00:23:41;;;;;;;4.47;3.08;;;;;;;12.26;68.56;99744.72;5033436;28;20064;-57
2022/06/06 00:26:09;;;;;;;5.72;2.90;;;;;;;12.24;68.74;99741.31;5033777;28;20127;-54
2022/06/06 00:28:35;;;;;;;3.92;2.75;;;;;;;12.23;68.65;99751.22;5033410;28;20467;-59
2022/06/06 00:36:34;;;;;;;4.85;2.65;;;;;;;12.22;68.80;99760.25;5034129;28;20033;-56
2022/06/06 00:39:00;;;;;;;5.20;3.08;;;;;;;12.15;68.93;99754.59;5033900;28;20029;-55
2022/06/06 00:41:26;;;;;;;6.97;3.40;;;;;;;12.13;68.79;99764.63;5033444;28;20083;-55
2022/06/06 00:44:05;;;;;;;8.25;3.10;;;;;;;12.23;69.08;99763.78;5033372;28;20037;-53
2022/06/06 00:46:32;;;;;;;4.90;3.72;;;;;;;12.11;69.26;99763.91;5033642;28;20030;-55
2022/06/06 00:48:57;;;;;;;7.82;3.50;;;;;;;12.11;69.42;99769.28;5031649;28;20041;-55
2022/06/06 00:51:23;;;;;;;4.28;3.15;;;;;;;12.11;69.38;99771.94;5033435;28;20021;-56
2022/06/06 00:53:52;;;;;;;4.93;3.28;;;;;;;12.14;69.65;99774.34;5033369;28;20030;-54
2022/06/06 00:56:36;;;;;;;4.22;3.50;;;;;;;12.19;69.58;99772.13;5032622;28;20037;-51
2022/06/06 00:59:06;;;;;;;5.15;3.60;;;;;;;12.13;69.91;99780.72;5033271;28;20068;-54
2022/06/06 01:01:35;;;;;;;6.82;3.70;;;;;;;12.14;70.03;99769.00;5034077;28;20029;-55
2022/06/06 01:04:03;;;;;;;4.20;3.25;;;;;;;12.06;70.03;99763.47;5033228;28;20033;-52
2022/06/06 01:06:32;;;;;;;7.90;3.75;;;;;;;12.12;70.30;99768.28;5033024;28;20029;-58
2022/06/06 01:08:58;;;;;;;5.40;4.00;;;;;;;12.07;70.37;99767.84;5032712;28;20144;-59
2022/06/06 01:11:24;;;;;;;4.63;3.75;;;;;;;12.06;70.54;99766.97;5033461;28;20509;-56
2022/06/06 01:13:52;;;;;;;7.55;3.85;;;;;;;12.06;70.67;99763.47;5031553;28;20116;-54
2022/06/06 01:16:37;;;;;;;8.60;3.88;;;;;;;12.16;70.76;99761.66;5032569;28;20502;-57
2022/06/06 01:19:36;;;;;;;8.48;3.83;;;;;;;12.19;70.46;99764.06;5033605;28;20136;-56
2022/06/06 01:22:24;;;;;;;6.40;3.70;;;;;;;12.20;70.65;99765.75;5033218;28;20041;-56
2022/06/06 01:25:36;;;;;;;7.78;4.20;;;;;;;12.21;70.36;99763.94;5032274;28;20029;-55
2022/06/06 01:28:22;;;;;;;11.35;4.63;;;;;;;12.17;70.54;99774.09;5032240;28;20026;-56
2022/06/06 01:30:52;;;;;;;11.30;4.53;;;;;;;12.13;70.87;99761.06;5033200;28;20056;-54
2022/06/06 01:33:18;;;;;;;15.02;4.40;;;;;;;12.12;70.97;99762.91;5032400;28;20033;-58
2022/06/06 01:35:47;;;;;;;10.10;4.88;;;;;;;12.15;70.89;99764.47;5032163;28;20040;-53
2022/06/06 01:38:16;;;;;;;14.93;4.90;;;;;;;12.17;70.88;99767.84;5032722;28;20036;-59
2022/06/06 01:41:10;;;;;;;12.15;4.70;;;;;;;12.28;71.16;99764.22;5033037;28;20025;-57
2022/06/06 01:43:52;;;;;;;15.75;4.80;;;;;;;12.31;71.01;99758.59;5031652;28;20068;-55
2022/06/06 01:46:25;;;;;;;17.05;4.93;;;;;;;12.08;70.71;99731.97;5031426;28;20072;-56
2022/06/06 01:48:51;;;;;;;14.82;4.43;;;;;;;12.24;70.66;99754.75;5032556;28;20389;-54
2022/06/06 01:51:23;;;;;;;11.43;4.60;;;;;;;12.29;70.89;99755.19;5032342;28;20040;-55
2022/06/06 01:53:48;;;;;;;11.18;4.25;;;;;;;12.29;70.84;99752.50;5032073;28;20037;-54
2022/06/06 01:56:19;;;;;;;13.02;4.50;;;;;;;12.34;70.87;99753.78;5031523;28;20527;-53
2022/06/06 01:58:45;;;;;;;11.77;4.85;;;;;;;12.34;70.73;99766.38;5032247;28;20160;-58
2022/06/06 02:01:10;;;;;;;8.60;4.30;;;;;;;12.24;70.63;99741.31;5032228;28;20033;-55
2022/06/06 02:03:36;;;;;;;7.53;4.25;;;;;;;12.25;70.59;99734.97;5031616;28;20422;-56
2022/06/06 02:06:03;;;;;;;10.23;3.97;;;;;;;12.45;70.55;99763.56;5031291;28;20431;-57
2022/06/06 02:08:31;;;;;;;7.25;3.97;;;;;;;12.51;70.08;99766.69;5031350;28;20195;-54
2022/06/06 02:10:57;;;;;;;7.78;4.10;;;;;;;12.55;70.26;99765.44;5031608;28;20033;-55
2022/06/06 02:13:23;;;;;;;8.07;4.22;;;;;;;12.51;69.96;99738.00;5031846;28;20026;-53
2022/06/06 02:15:48;;;;;;;10.23;4.05;;;;;;;12.80;69.27;99757.84;5031513;28;20119;-54
2022/06/06 02:18:15;;;;;;;7.70;3.80;;;;;;;13.03;68.74;99766.47;5031831;28;20053;-56
2022/06/06 02:20:40;;;;;;;5.80;3.70;;;;;;;13.26;67.88;99750.91;5031616;28;20084;-59
2022/06/06 02:23:06;;;;;;;7.40;3.72;;;;;;;13.51;66.95;99755.84;5031597;28;20076;-51
2022/06/06 02:25:33;;;;;;;11.35;3.92;;;;;;;13.78;66.25;99747.84;5031793;28;20559;-56
2022/06/06 02:27:59;;;;;;;5.70;3.55;;;;;;;14.14;64.74;99757.91;5031381;28;20029;-56
2022/06/06 02:30:30;;;;;;;7.63;3.70;;;;;;;14.53;63.83;99758.69;5031258;28;20156;-58
2022/06/06 02:32:55;;;;;;;7.03;3.40;;;;;;;14.96;62.51;99759.84;5031962;28;20029;-55
2022/06/06 02:35:24;;;;;;;4.30;3.40;;;;;;;15.56;60.46;99765.56;5031151;28;20026;-55
2022/06/06 02:37:51;;;;;;;5.28;3.40;;;;;;;15.83;58.89;99748.34;5031128;28;20109;-54
2022/06/06 02:40:19;;;;;;;4.60;3.78;;;;;;;16.20;57.92;99759.88;5031610;28;20437;-51
2022/06/06 02:42:45;;;;;;;9.07;3.15;;;;;;;16.34;56.94;99750.28;5031395;28;20505;-49
2022/06/06 02:45:18;;;;;;;3.92;3.50;;;;;;;16.41;56.56;99762.16;5030979;28;20029;-56
2022/06/06 02:47:46;;;;;;;4.68;3.42;;;;;;;16.28;56.97;99761.75;5031717;28;20079;-54
2022/06/06 02:50:14;;;;;;;6.07;3.30;;;;;;;16.19;57.04;99774.38;5031305;28;20363;-58
2022/06/06 02:52:39;;;;;;;4.07;3.33;;;;;;;16.02;57.23;99773.47;5030929;28;20041;-55
2022/06/06 02:55:08;;;;;;;4.75;3.60;;;;;;;15.90;57.79;99787.22;5031290;28;20034;-55
2022/06/06 02:57:43;;;;;;;3.97;2.85;;;;;;;15.97;58.15;99789.28;5030981;28;20021;-55
2022/06/06 03:00:13;;;;;;;4.10;2.95;;;;;;;16.03;57.55;99784.09;5031339;28;20113;-55
2022/06/06 03:02:38;;;;;;;5.40;3.40;;;;;;;16.40;56.72;99776.69;5030336;28;20030;-53
2022/06/06 03:05:06;;;;;;;3.85;3.30;;;;;;;16.92;55.13;99775.63;5031336;28;20036;-53
2022/06/06 03:08:09;;;;;;;3.80;3.13;;;;;;;17.57;54.48;99775.00;5030812;28;20032;-52
2022/06/06 03:10:44;;;;;;;5.10;3.13;;;;;;;17.93;52.14;99772.72;5030697;28;20503;-56
2022/06/06 03:13:50;;;;;;;7.88;4.40;;;;;;;18.72;51.53;99781.09;5030719;28;20033;-57
2022/06/06 03:23:06;;;;;;;4.30;3.55;;;;;;;20.34;46.89;99785.44;5030016;28;20038;-57
2022/06/06 03:25:48;;;;;;;5.13;3.92;;;;;;;20.50;45.75;99784.41;5029741;28;20111;-56
2022/06/06 03:28:34;;;;;;;4.32;3.83;;;;;;;20.78;45.73;99789.13;5030839;28;20053;-60
2022/06/06 03:31:33;;;;;;;4.00;3.70;;;;;;;21.26;44.77;99773.28;5030597;28;20383;-55
2022/06/06 03:34:23;;;;;;;6.15;3.67;;;;;;;21.85;42.92;99768.56;5031048;28;20029;-54
2022/06/06 03:36:49;;;;;;;6.22;3.50;;;;;;;22.49;40.44;99764.72;5030742;28;20032;-55
2022/06/06 03:39:36;;;;;;;8.88;3.65;;;;;;;23.28;39.20;99766.19;5031213;28;20033;-60
2022/06/06 03:42:18;;;;;;;5.47;3.95;;;;;;;23.63;39.26;99776.91;5031622;28;20083;-55
2022/06/06 03:45:01;;;;;;;6.07;3.80;;;;;;;23.58;37.63;99772.06;5032287;28;20083;-52
2022/06/06 03:47:39;;;;;;;4.05;3.65;;;;;;;23.77;37.65;99764.06;5030585;28;20037;-54
2022/06/06 03:50:13;;;;;;;3.72;3.42;;;;;;;24.41;36.41;99785.38;5030235;28;20037;-52
2022/06/06 03:52:47;;;;;;;3.63;3.22;;;;;;;25.16;35.46;99775.75;5030477;28;20433;-57
2022/06/06 03:55:51;;;;;;;3.67;3.38;;;;;;;25.90;34.50;99765.03;5031371;28;20030;-58
2022/06/06 03:58:17;;;;;;;4.28;3.47;;;;;;;26.30;32.49;99766.50;5030202;28;20076;-56
2022/06/06 04:00:45;;;;;;;4.03;3.63;;;;;;;26.97;31.30;99767.56;5030473;28;20033;-55
2022/06/06 04:03:13;;;;;;;5.97;3.80;;;;;;;27.43;30.80;99756.06;5030339;28;20076;-52
2022/06/06 04:05:39;;;;;;;5.70;3.40;;;;;;;28.07;28.88;99761.69;5028908;28;20098;-51
2022/06/06 04:08:08;;;;;;;3.38;3.08;;;;;;;28.81;28.47;99777.84;5029723;28;20064;-57
2022/06/06 04:10:42;;;;;;;6.50;3.70;;;;;;;29.32;27.52;99767.72;5030454;28;20037;-53
2022/06/06 04:13:29;;;;;;;3.75;3.10;;;;;;;29.99;26.38;99765.16;5030286;28;20470;-57
2022/06/06 04:15:57;;;;;;;5.43;3.30;;;;;;;30.38;25.76;99767.09;5030513;28;20485;-53
2022/06/06 04:18:45;;;;;;;4.95;2.90;;;;;;;30.84;25.33;99765.97;5029211;28;20404;-56
2022/06/06 04:21:31;;;;;;;2.95;2.75;;;;;;;31.71;24.52;99774.22;5029964;28;20374;-54
2022/06/06 04:24:09;;;;;;;3.63;3.15;;;;;;;32.57;23.14;99787.19;5030133;28;20069;-61
2022/06/06 04:26:49;;;;;;;3.42;3.00;;;;;;;32.83;22.83;99784.47;5032412;28;20033;-61
2022/06/06 04:29:35;;;;;;;5.80;2.92;;;;;;;32.72;22.83;99784.44;5034033;28;20077;-61
2022/06/06 04:32:19;;;;;;;3.10;2.75;;;;;;;33.33;22.49;99787.59;5013753;28;20427;-62
2022/06/06 04:35:07;;;;;;;2.90;2.67;;;;;;;33.54;21.47;99791.25;5014831;28;20258;-62
2022/06/06 04:37:46;;;;;;;8.73;2.53;;;;;;;34.05;20.45;99798.69;5031888;28;20446;-61
2022/06/06 04:40:35;;;;;;;3.60;2.58;;;;;;;34.51;20.12;99801.63;5033610;28;20087;-62
2022/06/06 04:43:25;;;;;;;6.78;3.10;;;;;;;34.87;19.69;99796.72;5034125;28;20072;-61
2022/06/06 04:46:01;;;;;;;3.00;2.60;;;;;;;34.90;19.76;99801.69;5033321;28;20034;-60
2022/06/06 04:48:27;;;;;;;2.78;2.58;;;;;;;34.34;18.72;99781.34;5033551;28;20037;-62
2022/06/06 04:50:54;;;;;;;3.67;2.85;;;;;;;34.40;19.20;99807.19;5033677;28;20508;-60
2022/06/06 04:53:22;;;;;;;3.17;2.80;;;;;;;34.44;19.40;99807.47;5033899;28;20473;-60
2022/06/06 04:55:50;;;;;;;5.22;2.80;;;;;;;34.71;19.16;99814.59;5033413;28;20037;-60
2022/06/06 04:58:17;;;;;;;3.47;2.50;;;;;;;34.62;19.04;99812.41;5033665;28;20041;-63
2022/06/06 05:00:43;;;;;;;3.92;2.83;;;;;;;34.69;18.56;99805.69;5033743;28;20068;-60
2022/06/06 05:03:09;;;;;;;2.83;2.55;;;;;;;35.30;18.22;99809.22;5033169;28;20406;-60
2022/06/06 05:06:09;;;;;;;2.90;2.55;;;;;;;36.19;17.88;99810.94;5033054;28;20465;-62
2022/06/06 05:08:59;;;;;;;3.83;2.80;;;;;;;37.54;17.22;99816.66;5024497;28;20057;-61
2022/06/06 05:11:43;;;;;;;3.95;3.08;;;;;;;37.60;16.88;99816.25;5033599;28;20033;-61
2022/06/06 05:14:38;;;;;;;2.80;2.60;;;;;;;37.79;16.01;99812.56;5013379;28;20049;-59
2022/06/06 05:17:10;;;;;;;3.75;3.28;;;;;;;37.51;16.57;99820.88;5028459;28;20107;-60
2022/06/06 05:19:55;;;;;;;4.18;2.83;;;;;;;37.49;15.67;99820.34;5033202;28;20061;-60
2022/06/06 05:22:30;;;;;;;3.67;3.30;;;;;;;37.75;16.42;99817.09;5032885;28;20108;-61
2022/06/06 05:25:14;;;;;;;6.60;3.25;;;;;;;37.89;16.23;99825.50;5032688;28;20138;-61
2022/06/06 05:28:01;;;;;;;3.50;2.95;;;;;;;39.33;15.63;99813.28;5032703;28;20068;-61
2022/06/06 05:30:45;;;;;;;4.28;3.08;;;;;;;39.82;14.58;99829.44;5032565;28;20037;-60
2022/06/06 05:33:38;;;;;;;4.00;2.85;;;;;;;40.68;14.06;99808.81;5033246;28;20033;-61
2022/06/06 05:36:28;;;;;;;4.93;3.00;;;;;;;41.44;13.16;99823.53;5032259;28;20401;-61
2022/06/06 05:39:18;;;;;;;2.80;2.55;;;;;;;42.50;12.68;99826.03;5032187;28;20460;-60
2022/06/06 05:41:59;;;;;;;4.28;3.10;;;;;;;42.97;11.20;99833.50;5032608;28;20116;-62
2022/06/06 05:44:37;;;;;;;3.10;2.42;;;;;;;44.02;11.71;99823.22;5032647;28;20405;-62
2022/06/06 05:47:15;;;;;;;5.25;2.75;;;;;;;44.43;10.43;99827.00;5031977;28;20029;-61
2022/06/06 05:50:02;;;;;;;3.55;3.00;;;;;;;44.29;10.76;99830.19;5032424;28;20041;-61
2022/06/06 05:52:46;;;;;;;4.15;2.80;;;;;;;43.55;10.51;99827.22;5032638;28;20382;-60
2022/06/06 05:55:27;;;;;;;4.75;2.78;;;;;;;42.89;11.67;99824.81;5032123;28;20140;-60
2022/06/06 05:58:26;;;;;;;2.97;2.78;;;;;;;43.12;11.21;99815.16;5032373;28;20496;-61
2022/06/06 06:00:54;;;;;;;4.15;3.13;;;;;;;42.89;10.79;99816.34;5032316;28;20033;-61
2022/06/06 06:03:41;;;;;;;2.90;2.70;;;;;;;43.99;10.51;99821.09;5022911;28;20049;-61
2022/06/06 06:06:22;;;;;;;2.90;2.70;;;;;;;45.19;10.06;99824.84;5012345;28;20121;-62
2022/06/06 06:09:32;;;;;;;3.80;2.70;;;;;;;45.54;9.67;99825.06;5028306;28;20462;-61
2022/06/06 06:12:00;;;;;;;5.70;2.80;;;;;;;44.58;9.69;99830.28;5031900;28;20043;-62
2022/06/06 06:14:47;;;;;;;3.28;2.70;;;;;;;44.53;9.62;99831.38;5031404;28;20029;-62
2022/06/06 06:17:17;;;;;;;3.58;2.85;;;;;;;44.05;10.13;99828.13;5030728;28;20480;-61
2022/06/06 06:19:49;;;;;;;6.22;3.00;;;;;;;44.07;10.35;99825.78;5031698;28;20541;-61
2022/06/06 06:22:17;;;;;;;3.38;2.55;;;;;;;44.00;9.81;99817.09;5031969;28;20037;-61
2022/06/06 06:24:43;;;;;;;3.38;2.70;;;;;;;43.65;10.12;99815.50;5030419;28;20033;-61
2022/06/06 06:27:11;;;;;;;4.72;2.83;;;;;;;44.09;9.88;99823.44;5031403;28;20029;-62
2022/06/06 06:29:37;;;;;;;4.10;2.88;;;;;;;44.65;9.72;99807.94;5031361;28;20462;-62
2022/06/06 06:32:14;;;;;;;3.03;2.83;;;;;;;45.07;9.37;99814.41;5031879;28;20030;-61
2022/06/06 06:35:11;;;;;;;6.13;3.60;;;;;;;45.68;9.43;99804.00;5031449;28;20064;-61
2022/06/06 06:38:08;;;;;;;3.65;2.70;;;;;;;44.89;9.78;99809.06;5031234;28;20044;-62
2022/06/06 06:40:56;;;;;;;3.00;2.60;;;;;;;44.97;9.76;99799.63;5028530;28;20033;-65
2022/06/06 06:43:41;;;;;;;7.45;2.70;;;;;;;44.47;9.55;99798.06;5028861;28;20044;-65
2022/06/06 06:46:29;;;;;;;;;;;;;;;46.31;10.14;99791.06;5027967;28;20094;-66
2022/06/06 06:49:20;;;;;;;3.30;2.72;;;;;;;45.99;9.50;99791.06;5011435;28;19917;-64
2022/06/06 06:52:13;;;;;;;3.40;2.80;;;;;;;43.98;10.35;99796.88;5007531;28;20038;-64
2022/06/06 06:54:42;;;;;;;4.13;3.08;;;;;;;43.18;10.75;99797.72;5015980;28;20037;-64
2022/06/06 06:57:22;;;;;;;5.97;2.83;;;;;;;44.38;9.53;99782.09;5030852;28;20112;-63
2022/06/06 07:00:11;;;;;;;22.85;4.43;;;;;;;45.72;9.32;99794.47;5030602;28;20112;-63
2022/06/06 07:08:49;;;;;;;2.78;2.50;;;;;;;43.72;10.30;99795.22;5031141;28;20036;-64
2022/06/06 07:11:42;;;;;;;2.70;2.50;;;;;;;41.36;12.02;99801.91;5030025;28;20056;-65
2022/06/06 07:14:12;;;;;;;2.88;2.60;;;;;;;38.41;14.07;99804.94;5024040;28;20053;-65
2022/06/06 07:16:39;;;;;;;8.43;2.83;;;;;;;40.10;12.77;99794.75;5011165;28;20041;-63
2022/06/06 07:19:12;;;;;;;8.15;2.83;;;;;;;41.49;11.73;99784.06;5011212;28;20195;-65
2022/06/06 07:21:40;;;;;;;4.18;2.40;;;;;;;40.24;12.29;99791.84;5014528;28;20397;-65
2022/06/06 07:24:09;;;;;;;2.83;2.63;;;;;;;38.15;14.16;99802.69;5029868;28;20466;-62
2022/06/06 07:26:38;;;;;;;3.50;2.80;;;;;;;35.19;16.61;99792.63;5027430;28;20541;-63
2022/06/06 07:29:08;;;;;;;4.95;2.67;;;;;;;32.50;19.64;99809.59;5020789;28;20471;-64
2022/06/06 07:32:16;;;;;;;4.18;2.67;;;;;;;30.84;21.31;99801.91;5030093;28;20085;-63
2022/06/06 07:35:18;;;;;;;4.93;2.40;;;;;;;34.13;18.22;99794.50;5029448;28;20029;-63
2022/06/06 07:38:16;;;;;;;5.28;2.95;;;;;;;37.58;15.02;99790.59;5025505;28;20080;-62
2022/06/06 07:41:06;;;;;;;2.63;2.42;;;;;;;37.28;15.31;99789.94;5028911;28;20037;-62
2022/06/06 07:43:44;;;;;;;4.15;2.45;;;;;;;35.16;16.75;99786.78;5029636;28;20041;-63
2022/06/06 07:46:30;;;;;;;2.50;2.30;;;;;;;33.73;18.20;99796.22;5030017;28;20064;-63
2022/06/06 07:48:58;;;;;;;;;;;;;;;32.98;18.82;99801.16;5029737;28;20381;-63
2022/06/06 07:51:43;;;;;;;4.78;2.53;;;;;;;30.25;21.74;99800.63;5030222;28;19991;-63
2022/06/06 07:54:11;;;;;;;7.47;2.90;;;;;;;29.27;23.22;99802.63;5029795;28;20095;-63
2022/06/06 07:57:00;;;;;;;13.73;3.60;;;;;;;28.70;23.65;99804.31;5029605;28;20045;-63
2022/06/06 07:59:32;;;;;;;4.78;2.47;;;;;;;27.48;25.85;99802.91;5030740;28;20057;-63
2022/06/06 08:02:31;;;;;;;5.63;3.05;;;;;;;26.75;26.18;99798.25;5033516;28;20040;-61
2022/06/06 08:05:20;;;;;;;4.00;2.53;;;;;;;25.73;27.63;99785.88;5034277;28;20021;-63
2022/06/06 08:08:09;;;;;;;4.28;2.50;;;;;;;27.55;25.95;99784.44;5033353;28;20115;-63
2022/06/06 08:10:40;;;;;;;3.60;2.60;;;;;;;31.39;21.76;99771.50;5033620;28;20091;-63
2022/06/06 08:13:11;;;;;;;8.80;3.22;;;;;;;31.62;20.90;99771.13;5033630;28;20033;-64
2022/06/06 08:15:48;;;;;;;6.00;2.80;;;;;;;30.69;21.53;99772.16;5033567;28;20041;-63
2022/06/06 08:18:38;;;;;;;8.65;2.75;;;;;;;29.18;23.49;99766.41;5034323;28;20093;-65
2022/06/06 08:21:29;;;;;;;6.88;2.72;;;;;;;27.89;25.49;99768.19;5033540;28;20065;-63
2022/06/06 08:23:58;;;;;;;8.57;2.97;;;;;;;26.44;27.65;99771.84;5031725;28;20033;-64
2022/06/06 08:26:26;;;;;;;4.60;2.90;;;;;;;25.60;28.86;99770.38;5033409;28;20108;-64
2022/06/06 08:28:51;;;;;;;3.20;2.90;;;;;;;25.00;29.78;99767.00;5033236;28;20033;-65
2022/06/06 08:31:18;;;;;;;3.00;2.70;;;;;;;24.69;30.49;99776.00;5032506;28;20032;-62
2022/06/06 08:33:45;;;;;;;6.05;3.63;;;;;;;24.54;31.48;99762.59;5033864;28;20033;-60
2022/06/06 08:36:51;;;;;;;6.88;2.90;;;;;;;24.86;30.09;99776.38;5033509;28;20040;-61
2022/06/06 08:39:30;;;;;;;6.15;3.15;;;;;;;24.65;30.49;99772.88;5013393;28;20061;-60
2022/06/06 08:42:25;;;;;;;4.20;3.10;;;;;;;24.70;30.44;99778.53;5021659;28;20550;-64
2022/06/06 08:45:11;;;;;;;5.75;2.72;;;;;;;24.47;30.52;99776.31;5031861;28;20045;-62
2022/06/06 08:47:48;;;;;;;2.88;2.53;;;;;;;24.76;30.11;99774.94;5032578;28;20075;-64
2022/06/06 08:50:44;;;;;;;3.25;2.60;;;;;;;24.57;29.68;99764.91;5033249;28;20037;-64
2022/06/06 08:53:51;;;;;;;3.10;2.42;;;;;;;24.68;30.02;99763.38;5032865;28;20028;-63
2022/06/06 08:56:16;;;;;;;3.70;2.38;;;;;;;24.67;29.83;99757.06;5032738;28;20030;-62
2022/06/06 08:58:57;;;;;;;2.88;2.60;;;;;;;24.64;30.31;99758.34;5032518;28;20048;-64
2022/06/06 09:01:34;;;;;;;4.70;2.72;;;;;;;24.91;29.90;99762.88;5033173;28;20076;-66
2022/06/06 09:04:45;;;;;;;3.78;2.63;;;;;;;25.30;28.85;99751.84;5033599;28;20037;-62
2022/06/06 09:07:20;;;;;;;2.55;2.35;;;;;;;25.34;28.83;99756.66;5033001;28;20488;-62
2022/06/06 09:10:00;;;;;;;2.60;2.28;;;;;;;25.14;29.40;99753.22;5031784;28;20037;-61
2022/06/06 09:13:00;;;;;;;4.00;2.53;;;;;;;25.73;28.62;99742.84;5030025;28;20438;-64
2022/06/06 09:15:47;;;;;;;3.10;2.35;;;;;;;26.14;28.38;99745.13;5029392;28;20063;-62
2022/06/06 09:18:29;;;;;;;2.58;2.40;;;;;;;26.47;27.46;99733.78;5032609;28;20054;-62
2022/06/06 09:21:04;;;;;;;2.63;2.20;;;;;;;26.92;26.40;99739.97;5025567;28;20110;-62
2022/06/06 09:24:16;;;;;;;2.20;2.00;;;;;;;26.87;25.88;99737.91;5031291;28;20156;-61
2022/06/06 09:27:15;;;;;;;3.38;1.75;;;;;;;25.94;26.69;99727.03;5029678;28;20045;-60
2022/06/06 09:30:07;;;;;;;3.05;1.85;;;;;;;25.74;27.51;99749.16;5029535;28;20494;-65
2022/06/06 09:32:55;;;;;;;2.25;2.05;;;;;;;25.57;27.46;99757.97;5032621;28;20331;-61
2022/06/06 09:35:39;;;;;;;3.20;1.77;;;;;;;25.54;27.61;99754.84;5032320;28;20119;-63
2022/06/06 09:38:42;;;;;;;8.77;2.47;;;;;;;25.63;27.78;99748.84;5031806;28;20040;-63
2022/06/06 09:41:33;;;;;;;2.08;1.80;;;;;;;25.68;27.82;99752.81;5031907;28;20045;-64
2022/06/06 09:44:22;;;;;;;3.90;2.10;;;;;;;25.66;28.05;99753.03;5012752;28;20038;-64
2022/06/06 09:47:06;;;;;;;3.45;2.20;;;;;;;25.35;28.58;99758.34;5011278;28;20096;-64
2022/06/06 09:49:48;;;;;;;4.40;2.03;;;;;;;25.05;29.01;99764.44;5022081;28;20125;-61
2022/06/06 09:52:19;;;;;;;3.42;2.25;;;;;;;24.77;29.79;99764.84;5031565;28;20022;-63
2022/06/06 10:01:59;;;;;;;2.03;1.92;;;;;;;26.16;27.58;99757.59;5029370;28;20044;-66
2022/06/06 10:04:48;;;;;;;4.07;2.13;;;;;;;26.72;27.04;99753.97;5025594;28;20049;-64
2022/06/06 10:08:09;;;;;;;2.97;2.15;;;;;;;27.17;26.46;99744.44;5031554;28;20041;-64
2022/06/06 10:10:59;;;;;;;3.25;1.92;;;;;;;27.05;25.29;99750.75;5029370;28;20112;-64
2022/06/06 10:13:55;;;;;;;2.90;1.75;;;;;;;27.02;26.23;99745.72;5031406;28;20362;-65
2022/06/06 10:16:42;;;;;;;2.63;1.80;;;;;;;26.63;26.45;99723.25;5019760;28;20052;-64
2022/06/06 10:19:45;;;;;;;2.30;1.80;;;;;;;26.05;27.10;99736.41;5031235;28;20132;-65
2022/06/06 10:22:46;;;;;;;2.80;1.92;;;;;;;25.27;28.45;99738.59;5009776;28;20026;-65
2022/06/06 10:25:37;;;;;;;3.03;1.90;;;;;;;24.41;29.90;99737.00;5023035;28;20045;-66
2022/06/06 10:28:29;;;;;;;2.17;2.08;;;;;;;23.91;30.49;99743.88;5031542;28;20052;-65
2022/06/06 10:31:05;;;;;;;2.83;1.92;;;;;;;23.59;31.26;99746.41;5020563;28;20072;-64
2022/06/06 10:33:52;;;;;;;2.28;1.83;;;;;;;23.54;31.42;99746.22;5031348;28;20037;-64
2022/06/06 10:36:56;;;;;;;3.65;1.85;;;;;;;23.50;31.44;99743.06;5030502;28;20104;-64
2022/06/06 10:39:52;;;;;;;2.58;1.80;;;;;;;23.46;31.25;99738.25;5029849;28;20067;-63
2022/06/06 10:42:57;;;;;;;2.85;1.85;;;;;;;23.48;30.87;99723.31;5028028;28;20083;-64
2022/06/06 10:45:37;;;;;;;2.58;1.70;;;;;;;23.93;30.73;99736.28;5024576;28;20500;-65
2022/06/06 10:48:15;;;;;;;2.78;1.80;;;;;;;24.47;30.39;99729.78;5027561;28;20041;-64
2022/06/06 10:54:13;;;;;;;2.15;1.90;;;;;;;25.23;29.51;99717.13;5011229;28;20041;-62
2022/06/06 10:56:54;;;;;;;2.00;1.88;;;;;;;25.35;28.05;99708.16;5030972;28;20037;-62
2022/06/06 10:59:28;;;;;;;2.03;1.70;;;;;;;25.64;27.47;99706.66;5024465;28;20056;-61
2022/06/06 11:02:22;;;;;;;2.20;1.40;;;;;;;26.15;27.22;99702.91;5029664;28;20046;-63
2022/06/06 11:05:17;;;;;;;2.83;2.00;;;;;;;26.43;27.26;99715.28;5026950;28;20041;-64
2022/06/06 11:08:12;;;;;;;3.78;1.80;;;;;;;26.45;26.79;99708.47;5030443;28;20410;-63
2022/06/06 11:11:19;;;;;;;3.33;1.63;;;;;;;26.58;26.80;99709.38;5026420;28;20481;-65
2022/06/06 11:14:06;;;;;;;2.33;1.60;;;;;;;26.70;25.50;99718.47;5014061;28;20061;-65
2022/06/06 11:16:39;;;;;;;2.78;1.50;;;;;;;26.60;25.42;99708.06;5029868;28;20053;-64
2022/06/06 11:19:20;;;;;;;1.58;1.20;;;;;;;26.50;25.34;99713.28;5030178;28;20136;-65
2022/06/06 11:21:54;;;;;;;1.73;1.33;;;;;;;26.28;25.60;99711.03;5030502;28;20027;-61
2022/06/06 11:24:22;;;;;;;2.85;1.50;;;;;;;25.97;25.70;99703.78;5028801;28;20067;-64
2022/06/06 11:27:10;;;;;;;3.72;1.30;;;;;;;25.65;26.69;99697.38;5030265;28;20116;-63
2022/06/06 11:29:38;;;;;;;3.33;1.45;;;;;;;25.37;26.67;99704.16;5030940;28;20037;-64
2022/06/06 11:32:25;;;;;;;1.38;1.25;;;;;;;25.37;26.90;99695.91;5030463;28;20030;-74
2022/06/06 11:35:12;;;;;;;3.22;1.20;;;;;;;25.30;27.01;99694.31;5025531;28;20045;-62
2022/06/06 11:38:06;;;;;;;3.78;1.40;;;;;;;25.19;26.80;99695.88;5030329;28;20033;-59
2022/06/06 11:40:50;;;;;;;2.13;1.70;;;;;;;25.21;26.86;99688.25;5030542;28;20041;-47
2022/06/06 11:43:41;;;;;;;2.90;1.50;;;;;;;25.05;27.27;99695.97;5029966;28;20029;-60
2022/06/06 11:46:43;;;;;;;3.97;1.63;;;;;;;24.59;28.33;99688.88;5030483;28;20041;-62
2022/06/06 11:49:41;;;;;;;1.48;1.38;;;;;;;24.31;28.76;99690.09;5009239;28;20050;-57
2022/06/06 11:52:25;;;;;;;1.85;1.40;;;;;;;24.22;28.85;99684.88;5011065;28;20050;-58
2022/06/06 11:55:21;;;;;;;3.00;1.80;;;;;;;24.15;28.45;99683.22;5014245;28;20087;-62
2022/06/06 11:58:11;;;;;;;1.65;1.27;;;;;;;24.03;29.14;99685.78;5027605;28;20033;-63
2022/06/06 12:01:18;;;;;;;1.98;1.27;;;;;;;24.10;28.78;99688.50;5029411;28;20176;-61
2022/06/06 12:03:50;;;;;;;2.55;1.35;;;;;;;24.02;29.04;99678.66;5029899;28;20030;-62
2022/06/06 12:06:50;;;;;;;1.10;1.02;;;;;;;24.10;28.50;99675.66;5028068;28;20397;-63
2022/06/06 12:09:34;;;;;;;1.48;1.20;;;;;;;24.04;28.36;99679.25;5030543;28;20065;-62
2022/06/06 12:12:37;;;;;;;1.70;1.30;;;;;;;23.99;28.15;99674.41;5030120;28;20039;-62
2022/06/06 12:15:11;;;;;;;4.05;1.38;;;;;;;24.10;27.50;99669.38;5028760;28;20021;-63
2022/06/06 12:17:46;;;;;;;1.50;0.85;;;;;;;24.13;27.42;99652.50;5030964;28;20511;-63
2022/06/06 12:20:23;;;;;;;2.90;0.93;;;;;;;24.45;26.59;99667.09;5030188;28;20116;-61
2022/06/06 12:23:10;;;;;;;1.95;1.10;;;;;;;24.55;26.85;99671.22;5030421;28;20033;-62
2022/06/06 12:25:54;;;;;;;3.50;1.08;;;;;;;24.36;26.68;99660.19;5031200;28;20042;-63
2022/06/06 12:28:22;;;;;;;2.08;1.20;;;;;;;24.36;26.67;99650.09;5026674;28;20056;-66
2022/06/06 12:31:06;;;;;;;2.47;1.05;;;;;;;24.40;26.97;99655.09;5011291;28;20045;-62
2022/06/06 12:33:40;;;;;;;2.55;1.15;;;;;;;24.21;27.03;99664.06;5029522;28;20045;-62
2022/06/06 12:36:16;;;;;;;1.70;0.90;;;;;;;24.21;25.46;99663.19;5030872;28;20129;-62
2022/06/06 12:39:28;;;;;;;8.48;2.10;;;;;;;24.11;26.03;99671.03;5029326;28;20119;-62
2022/06/06 12:41:53;;;;;;;5.70;1.30;;;;;;;23.85;26.68;99659.13;5029940;28;20041;-63
2022/06/06 12:44:47;;;;;;;1.50;0.85;;;;;;;23.94;26.46;99666.00;5030486;28;20145;-62
2022/06/06 12:47:28;;;;;;;2.00;1.00;;;;;;;23.79;26.23;99669.00;5031882;28;20025;-63
2022/06/06 12:50:20;;;;;;;2.65;1.00;;;;;;;23.48;26.74;99667.84;5033682;28;20049;-62
2022/06/06 12:53:04;;;;;;;4.20;1.05;;;;;;;23.32;27.21;99655.47;5034042;28;20039;-62
2022/06/06 12:56:17;;;;;;;2.50;1.00;;;;;;;23.50;27.28;99658.34;5033822;28;20506;-64
2022/06/06 12:58:45;;;;;;;1.80;1.27;;;;;;;23.54;27.25;99661.50;5021728;28;20049;-63
2022/06/06 13:01:37;;;;;;;2.38;1.20;;;;;;;23.65;27.32;99654.56;5033546;28;20033;-64
2022/06/06 13:04:06;;;;;;;3.58;1.30;;;;;;;23.72;27.27;99662.75;5018675;28;20033;-63